London Heathrow Airport

EGLL | LHR

London , England , United Kingdom

Friday, November 22nd, 2019 | 07:51

Weather

EGLL 220720Z AUTO 11005KT 9999 SCT017 BKN035 06/06 Q0996 NOSIG

Charts

1 Available

Gates

243 Available

Runways

2 Available

Events

No events for this airport


New event